sensor_id;sensor_type;location;lat;lon;timestamp;pressure;altitude;pressure_sealevel;temperature;humidity
55916;BME280;41826;53.246;-6.670;2023-07-31T00:00:27;100021.63;;;16.49;100.00
55916;BME280;41826;53.246;-6.670;2023-07-31T00:02:53;100017.94;;;16.43;100.00
55916;BME280;41826;53.246;-6.670;2023-07-31T00:05:19;100012.00;;;16.41;100.00
55916;BME280;41826;53.246;-6.670;2023-07-31T00:07:45;100010.13;;;16.35;100.00
55916;BME280;41826;53.246;-6.670;2023-07-31T00:10:11;100008.97;;;16.44;100.00
55916;BME280;41826;53.246;-6.670;2023-07-31T00:12:38;100002.41;;;16.40;100.00
55916;BME280;41826;53.246;-6.670;2023-07-31T00:15:04;100003.63;;;16.38;100.00
55916;BME280;41826;53.246;-6.670;2023-07-31T00:17:30;100002.00;;;16.37;100.00
55916;BME280;41826;53.246;-6.670;2023-07-31T00:19:55;100011.59;;;16.44;100.00
55916;BME280;41826;53.246;-6.670;2023-07-31T00:22:21;100010.44;;;16.54;100.00
55916;BME280;41826;53.246;-6.670;2023-07-31T00:24:47;100012.41;;;16.45;100.00
55916;BME280;41826;53.246;-6.670;2023-07-31T00:27:13;99999.09;;;16.25;100.00
55916;BME280;41826;53.246;-6.670;2023-07-31T00:29:38;100005.22;;;16.25;100.00
55916;BME280;41826;53.246;-6.670;2023-07-31T00:32:04;100057.13;;;16.13;100.00
55916;BME280;41826;53.246;-6.670;2023-07-31T00:34:29;100017.25;;;16.28;100.00
55916;BME280;41826;53.246;-6.670;2023-07-31T00:36:55;100015.03;;;16.32;100.00
55916;BME280;41826;53.246;-6.670;2023-07-31T00:39:20;100009.09;;;16.30;100.00
55916;BME280;41826;53.246;-6.670;2023-07-31T00:41:45;100009.75;;;16.38;100.00
55916;BME280;41826;53.246;-6.670;2023-07-31T00:44:11;100009.50;;;16.27;100.00
55916;BME280;41826;53.246;-6.670;2023-07-31T00:46:36;100011.31;;;16.19;100.00
55916;BME280;41826;53.246;-6.670;2023-07-31T00:49:02;100013.78;;;16.28;100.00
55916;BME280;41826;53.246;-6.670;2023-07-31T00:51:29;100017.09;;;16.36;100.00
55916;BME280;41826;53.246;-6.670;2023-07-31T00:53:55;100009.69;;;16.25;100.00
55916;BME280;41826;53.246;-6.670;2023-07-31T00:56:21;99992.13;;;16.11;100.00
55916;BME280;41826;53.246;-6.670;2023-07-31T00:58:47;99976.25;;;16.17;100.00
55916;BME280;41826;53.246;-6.670;2023-07-31T01:01:12;99978.09;;;16.17;100.00
55916;BME280;41826;53.246;-6.670;2023-07-31T01:03:37;99982.16;;;16.19;100.00
55916;BME280;41826;53.246;-6.670;2023-07-31T01:09:04;99971.78;;;16.24;100.00
55916;BME280;41826;53.246;-6.670;2023-07-31T01:11:35;99969.81;;;16.33;100.00
55916;BME280;41826;53.246;-6.670;2023-07-31T01:14:04;99981.19;;;16.27;100.00
55916;BME280;41826;53.246;-6.670;2023-07-31T01:16:29;99981.22;;;16.40;100.00
55916;BME280;41826;53.246;-6.670;2023-07-31T01:18:55;99980.78;;;16.30;100.00
55916;BME280;41826;53.246;-6.670;2023-07-31T01:24:20;99975.25;;;16.25;100.00
55916;BME280;41826;53.246;-6.670;2023-07-31T01:26:52;99975.91;;;16.34;100.00
55916;BME280;41826;53.246;-6.670;2023-07-31T01:29:55;99969.41;;;16.36;100.00
55916;BME280;41826;53.246;-6.670;2023-07-31T01:32:11;99971.44;;;16.34;100.00
55916;BME280;41826;53.246;-6.670;2023-07-31T01:34:37;99977.75;;;16.33;100.00
55916;BME280;41826;53.246;-6.670;2023-07-31T01:37:03;99976.69;;;16.21;100.00
55916;BME280;41826;53.246;-6.670;2023-07-31T01:39:28;99976.69;;;16.21;100.00
55916;BME280;41826;53.246;-6.670;2023-07-31T01:41:54;99976.69;;;16.21;100.00
55916;BME280;41826;53.246;-6.670;2023-07-31T01:44:20;99990.59;;;16.36;100.00
55916;BME280;41826;53.246;-6.670;2023-07-31T01:46:45;99984.41;;;16.16;100.00
55916;BME280;41826;53.246;-6.670;2023-07-31T01:49:11;99981.59;;;16.24;100.00
55916;BME280;41826;53.246;-6.670;2023-07-31T01:51:37;99984.44;;;16.29;100.00
55916;BME280;41826;53.246;-6.670;2023-07-31T01:54:03;99975.66;;;16.22;100.00
55916;BME280;41826;53.246;-6.670;2023-07-31T01:56:28;99980.47;;;16.05;100.00
55916;BME280;41826;53.246;-6.670;2023-07-31T01:58:54;99978.09;;;16.17;100.00
55916;BME280;41826;53.246;-6.670;2023-07-31T02:01:19;99976.06;;;16.19;100.00
55916;BME280;41826;53.246;-6.670;2023-07-31T02:03:45;99978.75;;;16.25;100.00
55916;BME280;41826;53.246;-6.670;2023-07-31T02:06:10;99977.28;;;16.16;100.00
55916;BME280;41826;53.246;-6.670;2023-07-31T02:08:36;99981.16;;;16.20;100.00
55916;BME280;41826;53.246;-6.670;2023-07-31T02:11:01;99976.59;;;16.08;100.00
55916;BME280;41826;53.246;-6.670;2023-07-31T02:13:27;99970.09;;;16.10;100.00
55916;BME280;41826;53.246;-6.670;2023-07-31T02:15:52;99968.66;;;16.08;100.00
55916;BME280;41826;53.246;-6.670;2023-07-31T02:18:17;99967.66;;;16.09;100.00
55916;BME280;41826;53.246;-6.670;2023-07-31T02:20:43;99971.53;;;16.13;100.00
55916;BME280;41826;53.246;-6.670;2023-07-31T02:23:11;99970.94;;;16.11;100.00
55916;BME280;41826;53.246;-6.670;2023-07-31T02:25:36;99967.00;;;16.00;100.00
55916;BME280;41826;53.246;-6.670;2023-07-31T02:28:02;99962.38;;;16.09;100.00
55916;BME280;41826;53.246;-6.670;2023-07-31T02:30:27;99968.84;;;15.99;100.00
55916;BME280;41826;53.246;-6.670;2023-07-31T02:32:53;99962.78;;;16.06;100.00
55916;BME280;41826;53.246;-6.670;2023-07-31T02:35:18;99955.81;;;16.04;100.00
55916;BME280;41826;53.246;-6.670;2023-07-31T02:37:44;99968.44;;;15.96;100.00
55916;BME280;41826;53.246;-6.670;2023-07-31T02:40:10;99972.16;;;16.08;100.00
55916;BME280;41826;53.246;-6.670;2023-07-31T02:42:35;99979.47;;;16.06;100.00
55916;BME280;41826;53.246;-6.670;2023-07-31T02:45:01;99966.81;;;16.01;100.00
55916;BME280;41826;53.246;-6.670;2023-07-31T02:47:26;99967.63;;;15.95;100.00
55916;BME280;41826;53.246;-6.670;2023-07-31T02:49:51;99957.63;;;15.97;100.00
55916;BME280;41826;53.246;-6.670;2023-07-31T02:52:17;99955.72;;;15.78;100.00
55916;BME280;41826;53.246;-6.670;2023-07-31T02:54:42;99945.78;;;15.87;100.00
55916;BME280;41826;53.246;-6.670;2023-07-31T02:57:08;99945.00;;;15.93;100.00
55916;BME280;41826;53.246;-6.670;2023-07-31T02:59:34;99941.91;;;15.89;100.00
55916;BME280;41826;53.246;-6.670;2023-07-31T03:01:59;99936.63;;;15.82;100.00
55916;BME280;41826;53.246;-6.670;2023-07-31T03:04:24;99933.19;;;15.95;100.00
55916;BME280;41826;53.246;-6.670;2023-07-31T03:06:50;99933.44;;;16.00;100.00
55916;BME280;41826;53.246;-6.670;2023-07-31T03:09:15;99937.53;;;16.10;100.00
55916;BME280;41826;53.246;-6.670;2023-07-31T03:11:40;99956.69;;;16.12;100.00
55916;BME280;41826;53.246;-6.670;2023-07-31T03:14:06;99951.53;;;15.97;100.00
55916;BME280;41826;53.246;-6.670;2023-07-31T03:16:31;99953.19;;;16.04;100.00
55916;BME280;41826;53.246;-6.670;2023-07-31T03:18:58;99963.59;;;16.13;100.00
55916;BME280;41826;53.246;-6.670;2023-07-31T03:21:23;99965.22;;;16.07;100.00
55916;BME280;41826;53.246;-6.670;2023-07-31T03:23:48;99958.69;;;16.10;100.00
55916;BME280;41826;53.246;-6.670;2023-07-31T03:26:14;99955.88;;;16.18;100.00
55916;BME280;41826;53.246;-6.670;2023-07-31T03:28:39;99969.69;;;16.07;100.00
55916;BME280;41826;53.246;-6.670;2023-07-31T03:31:05;99963.59;;;16.06;100.00
55916;BME280;41826;53.246;-6.670;2023-07-31T03:33:30;99958.91;;;16.08;100.00
55916;BME280;41826;53.246;-6.670;2023-07-31T03:35:55;99961.94;;;16.05;100.00
55916;BME280;41826;53.246;-6.670;2023-07-31T03:38:21;99946.88;;;16.06;100.00
55916;BME280;41826;53.246;-6.670;2023-07-31T03:40:46;99951.78;;;16.09;100.00
55916;BME280;41826;53.246;-6.670;2023-07-31T03:43:12;99946.34;;;15.82;100.00
55916;BME280;41826;53.246;-6.670;2023-07-31T03:45:38;99944.31;;;15.77;100.00
55916;BME280;41826;53.246;-6.670;2023-07-31T03:48:03;99940.28;;;15.88;100.00
55916;BME280;41826;53.246;-6.670;2023-07-31T03:50:29;99940.91;;;15.90;100.00
55916;BME280;41826;53.246;-6.670;2023-07-31T03:52:54;99948.25;;;15.95;100.00
55916;BME280;41826;53.246;-6.670;2023-07-31T03:55:20;99952.91;;;15.86;100.00
55916;BME280;41826;53.246;-6.670;2023-07-31T03:57:46;99944.19;;;15.99;100.00
55916;BME280;41826;53.246;-6.670;2023-07-31T04:00:12;99934.59;;;15.91;100.00
55916;BME280;41826;53.246;-6.670;2023-07-31T04:02:37;99941.22;;;15.74;100.00
55916;BME280;41826;53.246;-6.670;2023-07-31T04:05:03;99945.78;;;15.87;100.00
55916;BME280;41826;53.246;-6.670;2023-07-31T04:07:28;99937.44;;;15.90;100.00
55916;BME280;41826;53.246;-6.670;2023-07-31T04:09:54;99940.69;;;15.85;100.00
55916;BME280;41826;53.246;-6.670;2023-07-31T04:12:19;99946.41;;;15.89;100.00
55916;BME280;41826;53.246;-6.670;2023-07-31T04:14:45;99945.63;;;15.67;100.00
55916;BME280;41826;53.246;-6.670;2023-07-31T04:17:10;99941.06;;;15.75;100.00
55916;BME280;41826;53.246;-6.670;2023-07-31T04:19:35;99949.16;;;15.74;100.00
55916;BME280;41826;53.246;-6.670;2023-07-31T04:22:01;99931.72;;;15.86;100.00
55916;BME280;41826;53.246;-6.670;2023-07-31T04:24:26;99934.19;;;15.88;100.00
55916;BME280;41826;53.246;-6.670;2023-07-31T04:26:52;99924.78;;;15.78;100.00
55916;BME280;41826;53.246;-6.670;2023-07-31T04:29:18;99917.31;;;15.60;100.00
55916;BME280;41826;53.246;-6.670;2023-07-31T04:31:43;99923.47;;;15.68;100.00
55916;BME280;41826;53.246;-6.670;2023-07-31T04:34:09;99902.22;;;15.54;100.00
55916;BME280;41826;53.246;-6.670;2023-07-31T04:36:34;99902.84;;;15.56;100.00
55916;BME280;41826;53.246;-6.670;2023-07-31T04:39:00;99883.16;;;15.66;100.00
55916;BME280;41826;53.246;-6.670;2023-07-31T04:41:26;99882.38;;;15.72;100.00
55916;BME280;41826;53.246;-6.670;2023-07-31T04:43:51;99892.25;;;15.56;100.00
55916;BME280;41826;53.246;-6.670;2023-07-31T04:46:17;99888.13;;;15.75;100.00
55916;BME280;41826;53.246;-6.670;2023-07-31T04:48:42;99904.84;;;15.89;100.00
55916;BME280;41826;53.246;-6.670;2023-07-31T04:51:08;99921.13;;;15.86;100.00
55916;BME280;41826;53.246;-6.670;2023-07-31T04:53:35;99942.28;;;15.79;100.00
55916;BME280;41826;53.246;-6.670;2023-07-31T04:56:00;99958.31;;;15.71;100.00
55916;BME280;41826;53.246;-6.670;2023-07-31T04:58:26;99952.28;;;15.84;100.00
55916;BME280;41826;53.246;-6.670;2023-07-31T05:00:51;99962.84;;;15.77;100.00
55916;BME280;41826;53.246;-6.670;2023-07-31T05:03:16;99958.63;;;15.61;100.00
55916;BME280;41826;53.246;-6.670;2023-07-31T05:05:42;99951.75;;;15.67;100.00
55916;BME280;41826;53.246;-6.670;2023-07-31T05:08:07;99952.44;;;15.76;100.00
55916;BME280;41826;53.246;-6.670;2023-07-31T05:10:33;99956.53;;;15.78;100.00
55916;BME280;41826;53.246;-6.670;2023-07-31T05:12:58;99963.84;;;15.76;100.00
55916;BME280;41826;53.246;-6.670;2023-07-31T05:15:24;99981.84;;;15.88;100.00
55916;BME280;41826;53.246;-6.670;2023-07-31T05:17:49;99980.00;;;15.88;100.00
55916;BME280;41826;53.246;-6.670;2023-07-31T05:20:15;99985.72;;;15.64;100.00
55916;BME280;41826;53.246;-6.670;2023-07-31T05:22:40;99979.31;;;15.73;100.00
55916;BME280;41826;53.246;-6.670;2023-07-31T05:25:07;99983.50;;;15.67;100.00
55916;BME280;41826;53.246;-6.670;2023-07-31T05:27:32;99981.13;;;15.72;100.00
55916;BME280;41826;53.246;-6.670;2023-07-31T05:29:58;99995.88;;;15.88;100.00
55916;BME280;41826;53.246;-6.670;2023-07-31T05:32:23;100005.78;;;15.73;100.00
55916;BME280;41826;53.246;-6.670;2023-07-31T05:34:51;100011.38;;;15.91;100.00
55916;BME280;41826;53.246;-6.670;2023-07-31T05:37:17;100018.50;;;15.97;100.00
55916;BME280;41826;53.246;-6.670;2023-07-31T05:39:42;100027.09;;;15.99;100.00
55916;BME280;41826;53.246;-6.670;2023-07-31T05:42:08;100033.81;;;16.02;100.00
55916;BME280;41826;53.246;-6.670;2023-07-31T05:44:33;100032.53;;;15.91;100.00
55916;BME280;41826;53.246;-6.670;2023-07-31T05:46:59;100029.09;;;15.97;100.00
55916;BME280;41826;53.246;-6.670;2023-07-31T05:49:24;100026.66;;;15.96;100.00
55916;BME280;41826;53.246;-6.670;2023-07-31T05:51:49;100029.00;;;15.77;100.00
55916;BME280;41826;53.246;-6.670;2023-07-31T05:54:15;100038.38;;;15.80;100.00
55916;BME280;41826;53.246;-6.670;2023-07-31T05:56:40;100029.25;;;15.82;100.00
55916;BME280;41826;53.246;-6.670;2023-07-31T05:59:05;100029.66;;;15.86;100.00
55916;BME280;41826;53.246;-6.670;2023-07-31T06:01:31;100021.25;;;15.76;100.00
55916;BME280;41826;53.246;-6.670;2023-07-31T06:03:56;100021.25;;;15.76;100.00
55916;BME280;41826;53.246;-6.670;2023-07-31T06:06:22;100029.03;;;15.84;100.00
55916;BME280;41826;53.246;-6.670;2023-07-31T06:08:47;100029.81;;;15.78;100.00
55916;BME280;41826;53.246;-6.670;2023-07-31T06:11:12;100015.56;;;15.79;100.00
55916;BME280;41826;53.246;-6.670;2023-07-31T06:13:40;100018.66;;;15.82;100.00
55916;BME280;41826;53.246;-6.670;2023-07-31T06:16:06;100028.03;;;15.85;100.00
55916;BME280;41826;53.246;-6.670;2023-07-31T06:18:34;100027.81;;;15.87;100.00
55916;BME280;41826;53.246;-6.670;2023-07-31T06:21:00;100026.78;;;15.81;100.00
55916;BME280;41826;53.246;-6.670;2023-07-31T06:23:25;100022.38;;;15.67;100.00
55916;BME280;41826;53.246;-6.670;2023-07-31T06:25:50;100020.44;;;15.75;100.00
55916;BME280;41826;53.246;-6.670;2023-07-31T06:28:16;100012.41;;;15.69;100.00
55916;BME280;41826;53.246;-6.670;2023-07-31T06:30:41;100011.06;;;15.73;100.00
55916;BME280;41826;53.246;-6.670;2023-07-31T06:33:07;100007.78;;;15.71;100.00
55916;BME280;41826;53.246;-6.670;2023-07-31T06:35:32;100014.44;;;15.67;100.00
55916;BME280;41826;53.246;-6.670;2023-07-31T06:37:57;100024.53;;;15.78;100.00
55916;BME280;41826;53.246;-6.670;2023-07-31T06:40:23;100044.16;;;15.90;100.00
55916;BME280;41826;53.246;-6.670;2023-07-31T06:42:48;100034.88;;;15.73;100.00
55916;BME280;41826;53.246;-6.670;2023-07-31T06:45:14;100042.03;;;15.79;100.00
55916;BME280;41826;53.246;-6.670;2023-07-31T06:47:39;100020.00;;;15.72;100.00
55916;BME280;41826;53.246;-6.670;2023-07-31T06:50:05;100002.84;;;15.68;100.00
55916;BME280;41826;53.246;-6.670;2023-07-31T06:52:30;99998.72;;;15.58;100.00
55916;BME280;41826;53.246;-6.670;2023-07-31T06:55:03;99986.22;;;15.74;100.00
55916;BME280;41826;53.246;-6.670;2023-07-31T06:57:29;99986.50;;;15.86;100.00
55916;BME280;41826;53.246;-6.670;2023-07-31T06:59:55;99979.31;;;15.79;100.00
55916;BME280;41826;53.246;-6.670;2023-07-31T07:02:20;99973.63;;;15.54;100.00
55916;BME280;41826;53.246;-6.670;2023-07-31T07:04:45;99982.19;;;15.85;100.00
55916;BME280;41826;53.246;-6.670;2023-07-31T07:07:11;100001.97;;;15.89;100.00
55916;BME280;41826;53.246;-6.670;2023-07-31T07:09:36;99998.13;;;15.91;100.00
55916;BME280;41826;53.246;-6.670;2023-07-31T07:12:02;100022.84;;;16.05;100.00
55916;BME280;41826;53.246;-6.670;2023-07-31T07:14:27;100033.59;;;15.97;100.00
55916;BME280;41826;53.246;-6.670;2023-07-31T07:16:53;100034.38;;;15.91;100.00
55916;BME280;41826;53.246;-6.670;2023-07-31T07:19:18;100038.41;;;15.87;100.00
55916;BME280;41826;53.246;-6.670;2023-07-31T07:21:43;100019.53;;;15.68;100.00
55916;BME280;41826;53.246;-6.670;2023-07-31T07:24:09;100020.13;;;15.64;100.00
55916;BME280;41826;53.246;-6.670;2023-07-31T07:26:34;100019.66;;;15.81;100.00
55916;BME280;41826;53.246;-6.670;2023-07-31T07:29:00;100012.41;;;15.69;100.00
55916;BME280;41826;53.246;-6.670;2023-07-31T07:31:27;100010.97;;;15.66;100.00
55916;BME280;41826;53.246;-6.670;2023-07-31T07:33:53;100014.13;;;15.76;100.00
55916;BME280;41826;53.246;-6.670;2023-07-31T07:36:18;100010.66;;;15.76;100.00
55916;BME280;41826;53.246;-6.670;2023-07-31T07:38:44;100007.47;;;15.87;100.00
55916;BME280;41826;53.246;-6.670;2023-07-31T07:41:09;100015.06;;;15.97;100.00
55916;BME280;41826;53.246;-6.670;2023-07-31T07:43:35;100022.59;;;15.93;100.00
55916;BME280;41826;53.246;-6.670;2023-07-31T07:46:00;100031.16;;;15.95;100.00
55916;BME280;41826;53.246;-6.670;2023-07-31T07:48:25;100047.91;;;16.09;100.00
55916;BME280;41826;53.246;-6.670;2023-07-31T07:50:51;100027.81;;;15.80;100.00
55916;BME280;41826;53.246;-6.670;2023-07-31T07:53:16;100026.03;;;15.66;100.00
55916;BME280;41826;53.246;-6.670;2023-07-31T07:55:41;100012.81;;;15.66;100.00
55916;BME280;41826;53.246;-6.670;2023-07-31T07:58:07;100016.59;;;15.78;100.00
55916;BME280;41826;53.246;-6.670;2023-07-31T08:00:36;100019.81;;;15.52;100.00
55916;BME280;41826;53.246;-6.670;2023-07-31T08:03:01;100016.41;;;15.58;100.00
55916;BME280;41826;53.246;-6.670;2023-07-31T08:05:26;100023.78;;;15.91;100.00
55916;BME280;41826;53.246;-6.670;2023-07-31T08:07:52;100036.81;;;15.92;100.00
55916;BME280;41826;53.246;-6.670;2023-07-31T08:10:17;100062.81;;;15.82;100.00
55916;BME280;41826;53.246;-6.670;2023-07-31T08:12:43;100062.81;;;15.82;100.00
55916;BME280;41826;53.246;-6.670;2023-07-31T08:15:08;100072.00;;;15.86;100.00
55916;BME280;41826;53.246;-6.670;2023-07-31T08:17:34;100086.53;;;15.97;100.00
55916;BME280;41826;53.246;-6.670;2023-07-31T08:19:59;100103.53;;;15.81;100.00
55916;BME280;41826;53.246;-6.670;2023-07-31T08:22:25;100106.34;;;15.79;100.00
55916;BME280;41826;53.246;-6.670;2023-07-31T08:24:50;100120.72;;;15.92;100.00
55916;BME280;41826;53.246;-6.670;2023-07-31T08:27:16;100108.25;;;15.64;100.00
55916;BME280;41826;53.246;-6.670;2023-07-31T08:29:41;100103.22;;;15.69;100.00
55916;BME280;41826;53.246;-6.670;2023-07-31T08:32:07;100101.53;;;15.83;100.00
55916;BME280;41826;53.246;-6.670;2023-07-31T08:34:32;100111.03;;;16.06;100.00
55916;BME280;41826;53.246;-6.670;2023-07-31T08:36:57;100115.56;;;16.12;100.00
55916;BME280;41826;53.246;-6.670;2023-07-31T08:39:23;100116.94;;;16.08;100.00
55916;BME280;41826;53.246;-6.670;2023-07-31T08:41:48;100108.25;;;16.14;100.00
55916;BME280;41826;53.246;-6.670;2023-07-31T08:44:15;100113.59;;;16.20;100.00
55916;BME280;41826;53.246;-6.670;2023-07-31T08:46:40;100118.78;;;16.07;100.00
55916;BME280;41826;53.246;-6.670;2023-07-31T08:49:07;100097.69;;;16.20;100.00
55916;BME280;41826;53.246;-6.670;2023-07-31T08:51:36;100090.09;;;16.11;100.00
55916;BME280;41826;53.246;-6.670;2023-07-31T08:54:01;100089.00;;;15.98;100.00
55916;BME280;41826;53.246;-6.670;2023-07-31T08:56:29;100086.59;;;16.03;100.00
55916;BME280;41826;53.246;-6.670;2023-07-31T08:58:55;100077.28;;;16.14;100.00
55916;BME280;41826;53.246;-6.670;2023-07-31T09:01:21;100067.88;;;16.12;100.00
55916;BME280;41826;53.246;-6.670;2023-07-31T09:03:49;100064.72;;;16.30;100.00
55916;BME280;41826;53.246;-6.670;2023-07-31T09:06:18;100075.31;;;16.30;100.00
55916;BME280;41826;53.246;-6.670;2023-07-31T09:08:45;100064.53;;;15.96;100.00
55916;BME280;41826;53.246;-6.670;2023-07-31T09:11:12;100058.53;;;15.81;100.00
55916;BME280;41826;53.246;-6.670;2023-07-31T09:13:39;100041.41;;;15.77;100.00
55916;BME280;41826;53.246;-6.670;2023-07-31T09:16:05;100035.97;;;15.85;100.00
55916;BME280;41826;53.246;-6.670;2023-07-31T09:18:30;100027.09;;;15.99;100.00
55916;BME280;41826;53.246;-6.670;2023-07-31T09:21:05;100036.28;;;16.03;100.00
55916;BME280;41826;53.246;-6.670;2023-07-31T09:23:44;100035.59;;;15.95;100.00
55916;BME280;41826;53.246;-6.670;2023-07-31T09:26:10;100039.09;;;15.95;100.00
55916;BME280;41826;53.246;-6.670;2023-07-31T09:28:36;100049.53;;;16.10;100.00
55916;BME280;41826;53.246;-6.670;2023-07-31T09:31:01;100055.94;;;15.88;100.00
55916;BME280;41826;53.246;-6.670;2023-07-31T09:33:27;100052.75;;;15.99;100.00
55916;BME280;41826;53.246;-6.670;2023-07-31T09:35:52;100049.03;;;15.65;100.00
55916;BME280;41826;53.246;-6.670;2023-07-31T09:38:18;100033.28;;;15.57;100.00
55916;BME280;41826;53.246;-6.670;2023-07-31T09:40:48;100037.56;;;15.79;100.00
55916;BME280;41826;53.246;-6.670;2023-07-31T09:43:19;100037.00;;;15.63;100.00
55916;BME280;41826;53.246;-6.670;2023-07-31T09:45:45;100027.56;;;15.75;100.00
55916;BME280;41826;53.246;-6.670;2023-07-31T09:48:17;100027.41;;;15.83;100.00
55916;BME280;41826;53.246;-6.670;2023-07-31T09:50:48;100020.16;;;15.98;100.00
55916;BME280;41826;53.246;-6.670;2023-07-31T09:53:15;100018.16;;;16.00;100.00
55916;BME280;41826;53.246;-6.670;2023-07-31T09:55:41;100017.75;;;16.03;100.00
55916;BME280;41826;53.246;-6.670;2023-07-31T09:58:09;100027.53;;;16.10;100.00
55916;BME280;41826;53.246;-6.670;2023-07-31T10:00:35;100014.06;;;15.98;100.00
55916;BME280;41826;53.246;-6.670;2023-07-31T10:03:09;100013.94;;;15.78;100.00
55916;BME280;41826;53.246;-6.670;2023-07-31T10:05:36;100002.78;;;15.89;100.00
55916;BME280;41826;53.246;-6.670;2023-07-31T10:08:03;100005.78;;;16.14;100.00
55916;BME280;41826;53.246;-6.670;2023-07-31T10:10:30;100021.03;;;16.06;100.00
55916;BME280;41826;53.246;-6.670;2023-07-31T10:12:56;100008.66;;;15.78;100.00
55916;BME280;41826;53.246;-6.670;2023-07-31T10:15:23;100006.03;;;15.85;100.00
55916;BME280;41826;53.246;-6.670;2023-07-31T10:17:50;100004.06;;;15.93;100.00
55916;BME280;41826;53.246;-6.670;2023-07-31T10:20:16;100003.34;;;15.78;100.00
55916;BME280;41826;53.246;-6.670;2023-07-31T10:22:43;100006.19;;;16.11;100.00
55916;BME280;41826;53.246;-6.670;2023-07-31T10:25:09;100012.69;;;16.09;100.00
55916;BME280;41826;53.246;-6.670;2023-07-31T10:27:39;100010.09;;;15.87;100.00
55916;BME280;41826;53.246;-6.670;2023-07-31T10:30:05;100006.94;;;15.98;100.00
55916;BME280;41826;53.246;-6.670;2023-07-31T10:32:33;100002.16;;;15.87;100.00
55916;BME280;41826;53.246;-6.670;2023-07-31T10:34:58;99992.72;;;15.71;100.00
55916;BME280;41826;53.246;-6.670;2023-07-31T10:37:29;99982.59;;;15.81;100.00
55916;BME280;41826;53.246;-6.670;2023-07-31T10:40:26;99963.44;;;15.79;100.00
55916;BME280;41826;53.246;-6.670;2023-07-31T10:42:56;99962.88;;;15.84;100.00
55916;BME280;41826;53.246;-6.670;2023-07-31T10:45:35;99944.59;;;15.96;100.00
55916;BME280;41826;53.246;-6.670;2023-07-31T10:50:30;99940.91;;;15.55;100.00
55916;BME280;41826;53.246;-6.670;2023-07-31T10:52:58;99925.41;;;15.80;100.00
55916;BME280;41826;53.246;-6.670;2023-07-31T10:55:39;99914.00;;;15.80;100.00
55916;BME280;41826;53.246;-6.670;2023-07-31T10:58:11;99926.38;;;15.79;100.00
55916;BME280;41826;53.246;-6.670;2023-07-31T11:00:38;99919.38;;;15.65;100.00
55916;BME280;41826;53.246;-6.670;2023-07-31T11:03:09;99911.38;;;15.87;100.00
55916;BME280;41826;53.246;-6.670;2023-07-31T11:08:28;99918.81;;;16.18;100.00
55916;BME280;41826;53.246;-6.670;2023-07-31T11:13:48;99911.25;;;16.15;100.00
55916;BME280;41826;53.246;-6.670;2023-07-31T11:16:22;99910.25;;;16.16;100.00
55916;BME280;41826;53.246;-6.670;2023-07-31T11:18:48;99905.19;;;16.21;100.00
55916;BME280;41826;53.246;-6.670;2023-07-31T11:21:19;99922.06;;;16.20;100.00
55916;BME280;41826;53.246;-6.670;2023-07-31T11:23:49;99932.28;;;16.30;100.00
55916;BME280;41826;53.246;-6.670;2023-07-31T11:26:15;99937.41;;;16.31;100.00
55916;BME280;41826;53.246;-6.670;2023-07-31T11:28:41;99933.53;;;16.40;100.00
55916;BME280;41826;53.246;-6.670;2023-07-31T11:31:09;99954.38;;;16.57;100.00
55916;BME280;41826;53.246;-6.670;2023-07-31T11:33:35;99969.88;;;16.73;100.00
55916;BME280;41826;53.246;-6.670;2023-07-31T11:36:00;99978.66;;;16.67;100.00
55916;BME280;41826;53.246;-6.670;2023-07-31T11:38:31;100006.66;;;16.89;100.00
55916;BME280;41826;53.246;-6.670;2023-07-31T11:40:59;100042.97;;;17.02;100.00
55916;BME280;41826;53.246;-6.670;2023-07-31T11:43:25;100053.56;;;16.96;100.00
55916;BME280;41826;53.246;-6.670;2023-07-31T11:45:54;100050.66;;;16.77;100.00
55916;BME280;41826;53.246;-6.670;2023-07-31T11:48:28;100028.34;;;16.52;100.00
55916;BME280;41826;53.246;-6.670;2023-07-31T11:50:57;100022.72;;;16.20;100.00
55916;BME280;41826;53.246;-6.670;2023-07-31T11:53:28;99992.50;;;16.08;100.00
55916;BME280;41826;53.246;-6.670;2023-07-31T11:55:57;99997.59;;;16.64;100.00
55916;BME280;41826;53.246;-6.670;2023-07-31T11:58:23;100023.78;;;16.87;100.00
55916;BME280;41826;53.246;-6.670;2023-07-31T12:00:49;100031.16;;;17.05;100.00
55916;BME280;41826;53.246;-6.670;2023-07-31T12:03:15;100041.59;;;17.20;100.00
55916;BME280;41826;53.246;-6.670;2023-07-31T12:05:40;100040.97;;;17.24;100.00
55916;BME280;41826;53.246;-6.670;2023-07-31T12:08:10;100042.63;;;17.32;100.00
55916;BME280;41826;53.246;-6.670;2023-07-31T12:10:37;100035.25;;;17.34;100.00
55916;BME280;41826;53.246;-6.670;2023-07-31T12:13:05;100029.94;;;17.41;100.00
55916;BME280;41826;53.246;-6.670;2023-07-31T12:15:38;100017.69;;;17.53;100.00
55916;BME280;41826;53.246;-6.670;2023-07-31T12:18:05;100011.97;;;17.63;100.00
55916;BME280;41826;53.246;-6.670;2023-07-31T12:20:32;100017.66;;;17.73;100.00
55916;BME280;41826;53.246;-6.670;2023-07-31T12:22:57;100019.72;;;17.71;100.00
55916;BME280;41826;53.246;-6.670;2023-07-31T12:25:28;100011.31;;;17.74;100.00
55916;BME280;41826;53.246;-6.670;2023-07-31T12:27:54;100015.22;;;17.78;100.00
55916;BME280;41826;53.246;-6.670;2023-07-31T12:30:33;100008.09;;;17.39;100.00
55916;BME280;41826;53.246;-6.670;2023-07-31T12:33:20;100016.47;;;17.55;100.00
55916;BME280;41826;53.246;-6.670;2023-07-31T12:35:46;100005.22;;;17.73;100.00
55916;BME280;41826;53.246;-6.670;2023-07-31T12:38:13;100025.84;;;17.78;100.00
55916;BME280;41826;53.246;-6.670;2023-07-31T12:40:39;100023.19;;;17.78;100.00
55916;BME280;41826;53.246;-6.670;2023-07-31T12:43:06;100015.78;;;18.00;100.00
55916;BME280;41826;53.246;-6.670;2023-07-31T12:45:31;100025.59;;;18.06;100.00